Davison Army Air Field
KDAA : rendu visible

Aérodrome :











RETROUVEZ-NOUS SUR...

 
LOGIN :

S'inscrire | Disclaimer

   EN    FR    IT 

 









Légende :    VFR   VFR Marginal   IFR   IFR Intensif   IFR Très Intensif
Visi : 
Plafond : 
>= 8 km
>= 3000ft
5 à 8 km
1000 à 3000 ft
1500m à 5 km
500 à 1000 ft
800 à 1500m
200 à 500 ft
< 800m
< 200 ft
Symboles :   Orages  Brouillard  Fortes neiges  Fortes précipitations  Vent > 20 kt






- Altitude de l'aérodrome : 73 ft


KDAA - Davison Army Air Field

DERNIER METAR :
  • 100656Z AUTO 20005KT 10SM SCT110 BKN140 11/09 A2982 RMK AO2 SLP101 T01140091 $

METARs EXPIRÉS :
  • 100556Z AUTO 18005KT 10SM BKN130 11/09 A2982 RMK AO2 SLP101 60001 T01140091 10114 20080 57004 $
  • 100456Z AUTO 18005KT 10SM FEW015 BKN140 11/09 A2983 RMK AO2 SLP104 T01080091 401080059 $
  • 100421Z AUTO 18006KT 10SM SCT014 BKN140 11/09 A2983 RMK AO2 SLP104 $

TAF TAF KDAA
Valide du 10 à 02h jusqu'au 11 à 08h UTC


100200Z 1002/1108 20009KT 9000 -RA OVC007 WS020/20045KT QNH2983INS
BECMG 1004/1005 20012KT 9000 -SHRA BKN006 OVC010 WS020/23045KT QNH2984INS
BECMG 1014/1015 28009KT 9000 -RA OVC005 QNH2989INS TX13/1018Z TN06/1102Z LAST NO AMDS AFT 1002 NEXT 1010



MET'MAP, la Météo Aéronautique d'un coup d'oeil ! - Copyright ORBIFLY Décembre 2007 - Disclaimer

ORBIFLY MET'MAP TEAM :

Programmation & Développement : Alexandra Zaïnal
Sur une idée originale de : Baudouin d'Aumeries
Assistance à la programmation : Marc-Olivier Méhu
Soutien technique & logistique : Manuel Goepfert

Contact : metmap@orbifly.com




SOURCES & CREDITS :

   NOAA       Earth
Advisory